Share

Chadron, NE

RAWS KINGS CANYON NE US (MHRSN1) Elev 4080 ft | 42.72 °N, 102.97 °W | Change Station

Current weather conditions updated 37 minutes ago

Clear
Clear
60 °F
Feels Like 60 °F
N
10
Wind Variable Wind from South
Gusts 17.0 mph
Sunrise 6:04 AM
Sunset 7:39 PM
Moon Waning Gibbous

Tomorrow is forecast to be Much Warmer than today.

Pressure 29.99 in
Visibility 10.0 miles
Clouds Clear
Dew Point 27 °F
Humidity 28%
Rainfall 0.00 in
Snow Depth Not available.
UV 3 out of 16
Pollen 10.70 out of 12
Air Quality Not available.
Flu Activity Sporadic
METAR KCDR 192253Z AUTO 15008KT 10SM CLR 18/00 A2999 RMK AO2 SLP156 T01780000

More Conditions Fewer Conditions

Pressure 29.99 in
Visibility 10.0 miles
Clouds Clear
Dew Point 27 °F
Humidity 28%
Rainfall 0.00 in
Snow Depth Not available.
UV 3 out of 16
Pollen 10.70 out of 12
Air Quality Not available.
Flu Activity Sporadic
METAR KCDR 192253Z AUTO 15008KT 10SM CLR 18/00 A2999 RMK AO2 SLP156 T01780000

More Conditions Fewer Conditions

10-Day Weather Forecast

Almanac

Astronomy

Apr. 19, 2014 Rise Set
Actual Time 6:04 AM MDT 7:39 PM MDT
Civil Twilight 5:34 AM MDT 8:08 PM MDT
Nautical Twilight 4:58 AM MDT 8:45 PM MDT
Astronomical Twilight 4:20 AM MDT 9:23 PM MDT
Moon No Moon Rise 9:22 AM MDT
Length of Visible Light 14h 34m
Length of Day
13h 34m
Tomorrow will be 2m 42s longer.
Waning Gibbous, 76% of the Moon is Illuminated
Today
Waning Gibbous
Apr 22
Last Quarter
Apr 29
New
May 6
First Quarter
May 14
Full

Today's Extremes

State Highs State Lows

Community

  • Happy Easter WU friends!!!!
    Happy Easter WU friends!!!!
  • Skirting the Horizon
    Skirting the Horizon
  • Piriapolis
    Piriapolis
  • A Glorious Morning
    A Glorious Morning
  • Tender Rays Of Hope
    Tender Rays Of Hope

WunderPhotos

Upload Photos

1,702,944 photos uploaded!

WunderBlogs® & News

Nearby

Snow Depth

Station Depth Elevation
No new snow has been reported.

Coastal Water Temperatures

Place Temperature
No Stations Reporting

Earthquake Activity

City Distance Mag. Time & Date
No recent earthquake activity has been reported nearby.
Minimum magnitude displayed is 2.5.

Nearby Weather Stations

Station Location Temp. Dew Point Humidity Wind Precip. Elev Updated Type
RAWS KINGS CANYON NE, Chadron, NE 60 °F 27 °F 28% South  at  10 mph 0.00 in / hr 4080 ft 4:22 PM MDT MADIS
Bill and Corena's Backyard, Chadron, NE 64.2 °F 35 °F 34% SSE  at  7.0 mph 0.00 in / hr 3367 ft 4:59 PM MDT Rapid Fire
HADS WHITE RIVER NEAR NEBRASKA-SOUTH SD, Oglala, SD 66 °F - - North  at  - 0.00 in / hr 3028 ft 3:45 PM MDT MADIS

Show More Stations Show Fewer Stations

What do you think?

We're not finished. Please let us know what you like, what you don't like, and what you are still missing.